Time;durP1;ratioP1;P1;durP2;ratioP2;P2;SDS_P1;SDS_P2;PMS_P1;PMS_P2;Temp;Humidity;BMP_temperature;BMP_pressure;BME280_temperature;BME280_humidity;BME280_pressure;Samples;Min_cycle;Max_cycle;Signal;HPM_P1;HPM_P2
2022/05/30 00:00:22;;;;;;;4.57;1.50;;;;;;;27.47;23.88;101131.59;5012899;28;20390;-58
2022/05/30 00:02:49;;;;;;;4.93;1.67;;;;;;;27.08;23.27;101141.31;5014269;28;20184;-58
2022/05/30 00:05:17;;;;;;;5.05;2.65;;;;;;;26.90;24.86;101137.56;5013805;28;20522;-58
2022/05/30 00:07:44;;;;;;;4.63;1.80;;;;;;;26.95;24.49;101134.72;5008267;28;20084;-57
2022/05/30 00:10:11;;;;;;;3.38;1.52;;;;;;;26.95;25.77;101131.16;5014076;28;20026;-57
2022/05/30 00:12:38;;;;;;;3.85;1.83;;;;;;;26.70;25.32;101132.53;5008048;28;20105;-58
2022/05/30 00:15:07;;;;;;;4.43;1.52;;;;;;;26.56;24.85;101121.56;5009727;28;20076;-59
2022/05/30 00:17:34;;;;;;;4.30;1.10;;;;;;;26.56;25.95;101119.63;5004465;28;20176;-58
2022/05/30 00:20:00;;;;;;;9.95;3.00;;;;;;;26.53;25.96;101120.22;5014563;28;20105;-59
2022/05/30 00:22:26;;;;;;;4.53;1.60;;;;;;;26.22;26.78;101120.03;5012140;28;20104;-58
2022/05/30 00:24:52;;;;;;;4.28;1.60;;;;;;;26.22;27.55;101119.22;4993540;28;20025;-58
2022/05/30 00:27:19;;;;;;;5.13;1.55;;;;;;;26.00;28.27;101108.94;5014541;28;20085;-59
2022/05/30 00:29:45;;;;;;;7.75;1.58;;;;;;;25.88;28.38;101122.34;4993477;28;20189;-59
2022/05/30 00:32:12;;;;;;;6.35;1.73;;;;;;;25.63;29.04;101120.81;5012930;28;20463;-60
2022/05/30 00:34:39;;;;;;;3.38;1.10;;;;;;;25.87;27.55;101115.19;4998983;28;20060;-60
2022/05/30 00:37:05;;;;;;;8.20;1.80;;;;;;;25.20;29.10;101112.72;5010349;28;20041;-60
2022/05/30 00:39:34;;;;;;;11.48;2.40;;;;;;;24.94;29.71;101125.97;4995737;28;20054;-59
2022/05/30 00:42:10;;;;;;;5.68;1.88;;;;;;;25.02;30.13;101109.66;4995452;28;20034;-60
2022/05/30 00:44:37;;;;;;;8.07;1.70;;;;;;;24.95;29.74;101108.41;5008779;28;20056;-60
2022/05/30 00:47:03;;;;;;;4.43;2.05;;;;;;;24.89;29.66;101113.16;5014610;28;20065;-59
2022/05/30 00:49:30;;;;;;;4.88;1.60;;;;;;;24.71;29.64;101120.25;5014213;28;20034;-60
2022/05/30 00:51:57;;;;;;;4.32;1.50;;;;;;;24.40;30.55;101111.59;5014747;28;20026;-60
2022/05/30 00:54:32;;;;;;;10.35;2.00;;;;;;;24.04;31.47;101115.78;5013860;28;20029;-60
2022/05/30 00:57:19;;;;;;;3.83;1.77;;;;;;;24.11;31.65;101113.56;5014802;28;20026;-60
2022/05/30 01:00:01;;;;;;;3.35;1.25;;;;;;;23.70;32.40;101116.66;5013699;28;20030;-60
2022/05/30 01:02:37;;;;;;;7.57;2.00;;;;;;;23.53;33.65;101118.97;5014022;28;20537;-60
2022/05/30 01:07:49;;;;;;;6.25;1.50;;;;;;;23.00;34.11;101116.09;5014944;28;20032;-60
2022/05/30 01:10:20;;;;;;;7.30;1.98;;;;;;;23.00;34.51;101113.38;5013649;28;20026;-59
2022/05/30 01:12:53;;;;;;;4.57;1.92;;;;;;;22.96;34.25;101117.75;5013108;28;20033;-60
2022/05/30 01:15:23;;;;;;;7.30;1.83;;;;;;;22.85;33.72;101114.22;4999639;28;20026;-60
2022/05/30 01:17:55;;;;;;;6.20;1.92;;;;;;;22.91;35.38;101108.47;5010136;28;20033;-60
2022/05/30 01:21:01;;;;;;;6.50;1.98;;;;;;;22.64;35.28;101105.31;5007297;28;20052;-60
2022/05/30 01:23:49;;;;;;;6.97;1.90;;;;;;;22.60;34.70;101104.28;4987764;28;20045;-60
2022/05/30 01:26:39;;;;;;;6.70;2.38;;;;;;;22.74;35.44;101104.47;4994247;28;20020;-59
2022/05/30 01:29:16;;;;;;;12.20;2.28;;;;;;;22.66;34.49;101114.88;5007920;28;20065;-60
2022/05/30 01:31:42;;;;;;;5.65;1.60;;;;;;;22.49;36.41;101108.13;4993822;28;20029;-59
2022/05/30 01:34:09;;;;;;;5.95;1.80;;;;;;;22.61;35.35;101109.44;5011892;28;20159;-59
2022/05/30 01:36:35;;;;;;;4.47;1.52;;;;;;;22.43;35.27;101101.84;5008104;28;20030;-57
2022/05/30 01:39:02;;;;;;;7.45;1.80;;;;;;;22.32;35.29;101112.03;5010094;28;20030;-57
2022/05/30 01:41:28;;;;;;;7.10;1.95;;;;;;;22.47;36.20;101104.84;5011139;28;20026;-65
2022/05/30 01:43:55;;;;;;;4.47;1.95;;;;;;;22.44;35.92;101114.44;5013856;28;20026;-66
2022/05/30 01:46:23;;;;;;;4.68;2.22;;;;;;;22.68;35.46;101120.03;5011228;28;20356;-62
2022/05/30 01:48:50;;;;;;;8.13;1.92;;;;;;;22.72;35.78;101114.84;5010971;28;20474;-63
2022/05/30 01:51:19;;;;;;;5.78;1.85;;;;;;;22.67;34.20;101108.31;5010183;28;20046;-64
2022/05/30 01:53:46;;;;;;;5.07;1.83;;;;;;;22.69;34.89;101113.47;4994729;28;20367;-60
2022/05/30 01:56:14;;;;;;;6.32;2.00;;;;;;;22.48;35.29;101111.94;5012216;28;20037;-60
2022/05/30 01:58:40;;;;;;;7.75;2.25;;;;;;;22.00;35.88;101106.06;5009507;28;20050;-60
2022/05/30 02:01:24;;;;;;;6.00;2.15;;;;;;;21.79;36.23;101102.56;5008708;28;20038;-60
2022/05/30 02:03:51;;;;;;;7.80;1.83;;;;;;;21.64;36.81;101106.09;5007428;28;20056;-60
2022/05/30 02:06:23;;;;;;;4.93;2.15;;;;;;;21.81;36.22;101105.81;4999626;28;20034;-60
2022/05/30 02:08:49;;;;;;;8.75;2.55;;;;;;;21.81;35.89;101111.25;5023398;28;20601;-60
2022/05/30 02:11:17;;;;;;;3.95;1.73;;;;;;;22.04;36.02;101104.41;5008483;28;20037;-60
2022/05/30 02:13:44;;;;;;;7.00;2.13;;;;;;;22.30;35.47;101103.28;5005595;28;20026;-60
2022/05/30 02:18:58;;;;;;;9.05;2.00;;;;;;;22.35;35.15;101116.91;5004456;28;20092;-61
2022/05/30 02:21:24;;;;;;;4.53;1.48;;;;;;;22.12;35.50;101118.34;5013157;28;20030;-60
2022/05/30 02:23:51;;;;;;;8.00;2.13;;;;;;;22.06;35.64;101113.16;5011835;28;20057;-59
2022/05/30 02:26:17;;;;;;;6.47;2.00;;;;;;;22.34;35.32;101123.44;5004825;28;20026;-60
2022/05/30 02:28:43;;;;;;;6.13;2.15;;;;;;;21.99;35.85;101123.53;4993093;28;20126;-60
2022/05/30 02:31:09;;;;;;;13.77;2.33;;;;;;;21.99;35.75;101118.06;5042894;22;20049;-60
2022/05/30 02:36:39;;;;;;;8.43;2.10;;;;;;;22.24;36.09;101134.38;5068852;28;20066;-59
2022/05/30 02:39:06;;;;;;;8.67;2.33;;;;;;;22.51;35.29;101119.56;5072751;28;20028;-60
2022/05/30 02:41:32;;;;;;;5.40;2.00;;;;;;;22.26;35.61;101125.91;5072442;28;20158;-59
2022/05/30 02:43:58;;;;;;;8.82;2.30;;;;;;;22.25;35.98;101118.84;5072188;28;20107;-58
2022/05/30 02:46:25;;;;;;;8.68;2.40;;;;;;;22.56;35.20;101122.28;5072135;28;20198;-58
2022/05/30 02:48:51;;;;;;;10.38;3.13;;;;;;;22.40;35.51;101121.53;5070926;28;20044;-58
2022/05/30 02:51:18;;;;;;;7.85;2.80;;;;;;;22.53;35.71;101120.91;5072613;28;20203;-58
2022/05/30 02:53:44;;;;;;;8.20;2.17;;;;;;;22.10;36.29;101119.72;5071945;28;20028;-58
2022/05/30 02:56:15;;;;;;;7.07;2.00;;;;;;;21.91;36.86;101116.69;5072055;28;20465;-58
2022/05/30 02:58:42;;;;;;;9.48;2.47;;;;;;;21.63;37.23;101130.91;5071945;28;20024;-58
2022/05/30 03:01:09;;;;;;;10.10;2.78;;;;;;;21.31;38.18;101135.50;5071850;28;20119;-58
2022/05/30 03:03:36;;;;;;;8.93;2.67;;;;;;;21.03;38.43;101134.06;5070629;28;20389;-59
2022/05/30 03:06:03;;;;;;;7.93;2.80;;;;;;;20.82;38.88;101141.38;5071848;28;20050;-59
2022/05/30 03:08:29;;;;;;;9.88;2.33;;;;;;;20.77;39.40;101145.97;5058506;28;20029;-59
2022/05/30 03:10:55;;;;;;;9.50;2.83;;;;;;;20.56;39.30;101143.16;5052112;28;20033;-58
2022/05/30 03:13:22;;;;;;;11.88;3.00;;;;;;;20.31;39.97;101149.25;5049494;28;20442;-58
2022/05/30 03:15:48;;;;;;;8.43;2.63;;;;;;;20.02;40.39;101132.50;5051389;28;20037;-59
2022/05/30 03:18:14;;;;;;;9.65;3.17;;;;;;;19.74;40.89;101132.84;5052917;28;20028;-58
2022/05/30 03:20:41;;;;;;;16.88;2.95;;;;;;;19.35;42.27;101134.91;5071577;28;20431;-58
2022/05/30 03:23:07;;;;;;;10.45;2.90;;;;;;;19.23;42.39;101129.66;5071821;28;20024;-59
2022/05/30 03:25:34;;;;;;;7.15;2.42;;;;;;;19.08;42.44;101134.91;5065644;28;20017;-58
2022/05/30 03:28:01;;;;;;;12.80;3.47;;;;;;;18.71;43.83;101139.13;5069614;28;20059;-58
2022/05/30 03:30:28;;;;;;;10.48;2.90;;;;;;;18.37;44.46;101129.41;5059262;28;20116;-58
2022/05/30 03:32:54;;;;;;;12.20;2.75;;;;;;;18.49;44.82;101138.28;5051615;28;20616;-58
2022/05/30 03:35:21;;;;;;;13.75;3.42;;;;;;;18.51;45.09;101141.53;5051177;28;20039;-59
2022/05/30 03:37:47;;;;;;;12.85;3.28;;;;;;;18.52;45.04;101154.00;5051471;28;20484;-59
2022/05/30 03:40:15;;;;;;;14.50;3.42;;;;;;;18.37;45.14;101153.81;5051394;28;20060;-58
2022/05/30 03:42:42;;;;;;;12.30;3.03;;;;;;;18.38;45.18;101147.34;5050767;28;20102;-58
2022/05/30 03:45:09;;;;;;;9.13;3.35;;;;;;;18.04;45.98;101146.56;5031205;28;20071;-58
2022/05/30 03:47:40;;;;;;;8.75;2.63;;;;;;;17.93;46.42;101154.53;5030069;28;20026;-58
2022/05/30 03:50:07;;;;;;;11.93;3.05;;;;;;;17.89;46.44;101152.56;5031118;28;20022;-58
2022/05/30 03:52:34;;;;;;;12.07;3.10;;;;;;;17.95;46.18;101159.72;5031587;28;20032;-58
2022/05/30 03:55:06;;;;;;;11.10;3.10;;;;;;;17.86;46.49;101167.41;5030927;28;20100;-59
2022/05/30 03:57:32;;;;;;;16.33;4.25;;;;;;;17.92;46.48;101160.19;5031517;28;20033;-58
2022/05/30 03:59:58;;;;;;;11.73;3.55;;;;;;;17.97;46.15;101157.56;5032119;28;20083;-59
2022/05/30 04:02:25;;;;;;;12.57;3.80;;;;;;;17.89;46.35;101161.50;5033932;28;20076;-58
2022/05/30 04:04:52;;;;;;;9.30;3.08;;;;;;;17.98;46.31;101172.75;5030682;28;20025;-58
2022/05/30 04:07:18;;;;;;;9.65;3.08;;;;;;;17.84;46.58;101164.13;5031417;28;20108;-58
2022/05/30 04:09:44;;;;;;;11.48;3.40;;;;;;;17.98;46.32;101175.44;5031012;28;20026;-59
2022/05/30 04:12:11;;;;;;;16.33;3.60;;;;;;;17.82;46.43;101168.16;5031240;28;20021;-59
2022/05/30 04:14:37;;;;;;;9.82;3.47;;;;;;;17.88;46.56;101168.00;5029641;28;20028;-59
2022/05/30 04:17:03;;;;;;;9.57;3.47;;;;;;;17.93;46.32;101178.91;5031853;28;20029;-59
2022/05/30 04:19:30;;;;;;;14.10;3.78;;;;;;;17.68;46.92;101181.16;5035788;28;20022;-59
2022/05/30 04:21:56;;;;;;;11.45;3.80;;;;;;;17.54;47.45;101180.63;5031352;28;20367;-58
2022/05/30 04:24:22;;;;;;;9.45;3.63;;;;;;;17.65;47.09;101174.34;5029169;28;20430;-58
2022/05/30 04:26:49;;;;;;;13.68;3.22;;;;;;;17.69;46.84;101170.09;5031318;28;20401;-59
2022/05/30 04:29:15;;;;;;;10.77;3.15;;;;;;;17.81;46.73;101172.75;5029886;28;20486;-58
2022/05/30 04:31:41;;;;;;;11.23;3.42;;;;;;;17.86;46.53;101172.81;5039830;28;20128;-58
2022/05/30 04:34:08;;;;;;;10.45;3.30;;;;;;;17.58;46.90;101176.38;5050114;28;20417;-58
2022/05/30 04:36:34;;;;;;;13.43;3.05;;;;;;;17.34;47.17;101185.72;5036611;28;20025;-60
2022/05/30 04:39:00;;;;;;;15.68;3.38;;;;;;;17.37;46.80;101177.09;5036440;28;20087;-58
2022/05/30 04:41:27;;;;;;;10.20;2.80;;;;;;;17.18;47.56;101181.06;5047422;28;20029;-58
2022/05/30 04:43:53;;;;;;;11.07;3.25;;;;;;;17.17;47.58;101179.44;5054381;28;20068;-58
2022/05/30 04:46:22;;;;;;;13.13;3.45;;;;;;;17.15;47.48;101188.59;5040061;28;20040;-58
2022/05/30 04:48:48;;;;;;;10.38;2.83;;;;;;;17.08;47.63;101195.22;5054369;28;20056;-57
2022/05/30 04:51:15;;;;;;;10.57;3.53;;;;;;;17.01;48.12;101187.25;5053925;28;20033;-57
2022/05/30 04:53:41;;;;;;;11.73;3.55;;;;;;;16.90;48.59;101193.50;5054134;28;20029;-58
2022/05/30 04:56:08;;;;;;;12.70;3.40;;;;;;;16.96;48.26;101197.13;5053810;28;20029;-58
2022/05/30 04:58:36;;;;;;;9.23;2.78;;;;;;;17.11;47.76;101195.56;5040594;28;20033;-57
2022/05/30 05:01:09;;;;;;;10.40;2.90;;;;;;;17.04;48.16;101205.66;5052710;28;20503;-57
2022/05/30 05:03:37;;;;;;;10.43;3.00;;;;;;;17.46;47.47;101208.13;5054341;28;20598;-57
2022/05/30 05:06:07;;;;;;;11.93;3.67;;;;;;;17.15;47.73;101204.81;5053878;28;20036;-58
2022/05/30 05:08:43;;;;;;;7.18;2.67;;;;;;;17.03;48.37;101201.34;5053577;28;20025;-57
2022/05/30 05:11:13;;;;;;;11.50;3.20;;;;;;;17.09;48.36;101211.19;5054030;28;20025;-58
2022/05/30 05:13:40;;;;;;;7.00;3.10;;;;;;;16.82;48.87;101204.69;5053958;28;20087;-58
2022/05/30 05:16:07;;;;;;;12.20;3.38;;;;;;;16.80;48.85;101214.91;5053495;28;20048;-58
2022/05/30 05:18:33;;;;;;;15.20;3.38;;;;;;;16.82;48.81;101215.50;5053890;28;20056;-58
2022/05/30 05:21:00;;;;;;;8.60;3.33;;;;;;;16.83;48.23;101220.69;5053593;28;20032;-58
2022/05/30 05:23:27;;;;;;;9.50;3.28;;;;;;;16.74;48.62;101213.97;5053585;28;20068;-58
2022/05/30 05:25:53;;;;;;;11.70;3.10;;;;;;;16.71;48.26;101219.88;5044269;28;20022;-58
2022/05/30 05:28:19;;;;;;;11.27;3.05;;;;;;;16.64;49.04;101221.84;5042685;28;20377;-58
2022/05/30 05:30:45;;;;;;;11.70;3.50;;;;;;;16.67;48.85;101224.06;5053094;28;20041;-58
2022/05/30 05:33:12;;;;;;;9.93;3.08;;;;;;;16.50;49.31;101234.78;5046830;28;20036;-58
2022/05/30 05:35:46;;;;;;;7.57;2.63;;;;;;;16.40;49.28;101233.72;5053003;28;20412;-58
2022/05/30 05:38:13;;;;;;;12.40;2.80;;;;;;;16.31;49.52;101235.94;5053410;28;20021;-58
2022/05/30 05:40:41;;;;;;;8.02;3.17;;;;;;;16.26;49.22;101241.22;5053032;28;20040;-59
2022/05/30 05:43:08;;;;;;;10.45;2.97;;;;;;;16.19;49.31;101238.63;5036821;28;20047;-58
2022/05/30 05:45:39;;;;;;;9.90;3.15;;;;;;;16.13;49.20;101231.47;5041444;28;20416;-59
2022/05/30 05:48:09;;;;;;;10.68;3.17;;;;;;;16.21;48.89;101239.25;5049152;28;20083;-62
2022/05/30 05:50:43;;;;;;;9.18;3.10;;;;;;;16.35;48.66;101242.53;5032796;28;20495;-58
2022/05/30 05:53:10;;;;;;;8.05;3.05;;;;;;;16.30;48.71;101234.31;5032972;28;20408;-58
2022/05/30 05:55:40;;;;;;;10.40;2.92;;;;;;;16.31;48.29;101239.47;5032687;28;20029;-58
2022/05/30 05:58:07;;;;;;;11.48;2.90;;;;;;;16.27;48.59;101238.31;5033061;28;20022;-58
2022/05/30 06:00:34;;;;;;;15.30;4.00;;;;;;;16.34;48.32;101236.31;5043595;28;20056;-59
2022/05/30 06:03:00;;;;;;;9.57;2.92;;;;;;;16.16;48.93;101230.16;5033114;28;20101;-58
2022/05/30 06:05:26;;;;;;;7.50;2.65;;;;;;;16.11;49.04;101230.91;5036631;28;20033;-58
2022/05/30 06:07:53;;;;;;;7.35;2.60;;;;;;;16.00;49.60;101232.53;5049970;28;20029;-58
2022/05/30 06:10:19;;;;;;;15.02;3.05;;;;;;;16.08;49.90;101224.06;5032839;28;20122;-59
2022/05/30 06:12:46;;;;;;;10.98;2.47;;;;;;;16.22;49.44;101227.38;5033504;28;20033;-58
2022/05/30 06:15:15;;;;;;;13.07;3.22;;;;;;;16.10;49.88;101237.31;5052652;28;20458;-59
2022/05/30 06:17:43;;;;;;;15.20;3.63;;;;;;;15.90;50.29;101234.13;5052352;28;20032;-59
2022/05/30 06:20:12;;;;;;;11.82;4.03;;;;;;;15.82;50.47;101227.19;5052089;28;20120;-59
2022/05/30 06:22:38;;;;;;;15.00;3.00;;;;;;;15.82;50.66;101227.19;5052603;28;20024;-57
2022/05/30 06:25:05;;;;;;;11.18;3.17;;;;;;;15.73;50.85;101224.00;5049997;28;20068;-58
2022/05/30 06:27:32;;;;;;;12.63;2.78;;;;;;;15.86;49.98;101211.34;5052208;28;20083;-58
2022/05/30 06:29:59;;;;;;;9.38;3.15;;;;;;;15.92;49.99;101226.63;5051757;28;20132;-58
2022/05/30 06:32:25;;;;;;;9.95;2.90;;;;;;;15.68;50.30;101218.47;5052257;28;20036;-58
2022/05/30 06:34:51;;;;;;;6.78;1.92;;;;;;;15.61;50.36;101216.91;5038382;28;20049;-58
2022/05/30 06:37:17;;;;;;;10.95;3.22;;;;;;;15.69;50.30;101216.59;5042386;28;20088;-60
2022/05/30 06:39:44;;;;;;;11.20;2.45;;;;;;;15.72;50.18;101211.56;5030801;28;20085;-59
2022/05/30 06:42:12;;;;;;;11.32;2.70;;;;;;;15.63;50.44;101222.91;5031891;28;20044;-59
2022/05/30 06:44:39;;;;;;;11.18;3.40;;;;;;;15.57;50.62;101214.66;5044689;28;20554;-59
2022/05/30 06:47:10;;;;;;;9.88;3.08;;;;;;;15.48;50.82;101221.41;5032620;28;20041;-58
2022/05/30 06:49:36;;;;;;;13.45;3.45;;;;;;;15.50;50.70;101219.34;5043702;28;20059;-58
2022/05/30 06:52:03;;;;;;;12.45;3.10;;;;;;;15.44;50.96;101214.84;5052123;28;20064;-59
2022/05/30 06:54:31;;;;;;;11.75;2.90;;;;;;;15.44;51.04;101216.75;5039605;28;20393;-59
2022/05/30 06:59:41;;;;;;;11.77;3.15;;;;;;;15.24;51.04;101230.47;5043291;28;20064;-59
2022/05/30 07:02:07;;;;;;;13.57;3.30;;;;;;;15.04;51.50;101223.44;5052091;28;20029;-59
2022/05/30 07:04:35;;;;;;;11.85;3.22;;;;;;;14.89;51.60;101235.69;5050589;28;20024;-59
2022/05/30 07:07:07;;;;;;;11.20;3.30;;;;;;;14.93;51.43;101234.97;5049858;28;20075;-59
2022/05/30 07:09:34;;;;;;;12.30;3.67;;;;;;;14.96;50.95;101234.53;5051850;28;20028;-59
2022/05/30 07:12:01;;;;;;;10.50;2.47;;;;;;;14.90;51.07;101237.31;5050754;28;20025;-59
2022/05/30 07:14:27;;;;;;;9.23;2.83;;;;;;;14.84;51.46;101225.56;5051397;28;20040;-59
2022/05/30 07:16:53;;;;;;;10.57;2.70;;;;;;;14.98;50.76;101220.84;5050981;28;20142;-59
2022/05/30 07:19:19;;;;;;;9.90;3.03;;;;;;;14.91;50.54;101215.53;5051180;28;20025;-58
2022/05/30 07:21:47;;;;;;;11.40;2.53;;;;;;;14.77;50.90;101225.66;5051451;28;20031;-58
2022/05/30 07:24:13;;;;;;;8.25;2.80;;;;;;;14.89;50.62;101228.41;5049593;28;20546;-58
2022/05/30 07:26:39;;;;;;;9.45;2.63;;;;;;;14.84;49.94;101225.56;5051523;28;20295;-59
2022/05/30 07:29:06;;;;;;;10.88;3.03;;;;;;;14.83;50.25;101221.22;5050689;28;20119;-59
2022/05/30 07:31:32;;;;;;;10.80;3.13;;;;;;;15.01;49.95;101215.00;5051422;28;20045;-58
2022/05/30 07:33:59;;;;;;;8.23;2.47;;;;;;;14.71;50.61;101223.00;5044755;28;20064;-59
2022/05/30 07:36:28;;;;;;;13.63;3.10;;;;;;;14.75;50.11;101208.88;5031945;28;20469;-58
2022/05/30 07:38:54;;;;;;;12.30;3.30;;;;;;;14.64;50.74;101219.56;5045408;28;20025;-58
2022/05/30 07:41:22;;;;;;;10.48;3.05;;;;;;;14.59;50.68;101219.41;5049799;28;20456;-58
2022/05/30 07:43:49;;;;;;;7.40;2.97;;;;;;;14.30;51.56;101205.56;5051024;28;20051;-58
2022/05/30 07:46:18;;;;;;;7.80;2.78;;;;;;;14.46;51.41;101205.00;5050414;28;20036;-58
2022/05/30 07:48:44;;;;;;;10.00;3.20;;;;;;;14.35;51.21;101207.59;5051363;28;20029;-59
2022/05/30 07:51:12;;;;;;;8.40;3.05;;;;;;;14.24;51.60;101209.16;5050490;28;20481;-59
2022/05/30 07:53:40;;;;;;;10.50;2.75;;;;;;;14.09;51.92;101189.81;5051340;28;20459;-59
2022/05/30 07:56:09;;;;;;;9.07;2.53;;;;;;;14.55;50.99;101194.81;5050383;28;20028;-58
2022/05/30 07:58:38;;;;;;;13.40;3.38;;;;;;;14.38;51.27;101191.84;5050542;28;20025;-58
2022/05/30 08:01:06;;;;;;;11.48;3.65;;;;;;;14.37;51.51;101182.09;5049356;28;20136;-58
2022/05/30 08:03:32;;;;;;;12.38;3.08;;;;;;;14.06;52.16;101188.41;5051000;28;20025;-58
2022/05/30 08:06:07;;;;;;;14.77;3.30;;;;;;;13.97;52.82;101195.91;5050068;28;20030;-59
2022/05/30 08:08:33;;;;;;;15.10;4.10;;;;;;;14.15;52.93;101183.56;5050224;28;20021;-60
2022/05/30 08:10:59;;;;;;;10.50;3.45;;;;;;;14.34;53.16;101185.25;5050233;28;20043;-59
2022/05/30 08:13:26;;;;;;;10.15;3.65;;;;;;;14.15;54.31;101189.75;5054049;28;20029;-59
2022/05/30 08:15:52;;;;;;;14.05;3.78;;;;;;;14.16;54.76;101188.72;5054752;28;20119;-59
2022/05/30 08:18:19;;;;;;;11.48;3.78;;;;;;;14.08;55.37;101177.41;5035761;28;20127;-59
2022/05/30 08:20:45;;;;;;;13.25;3.63;;;;;;;13.97;55.77;101176.25;5034488;28;20112;-59
2022/05/30 08:23:12;;;;;;;19.73;4.22;;;;;;;14.16;56.85;101174.44;5038182;28;20141;-59
2022/05/30 08:25:39;;;;;;;18.20;3.85;;;;;;;14.08;58.08;101175.53;5034286;28;20474;-59
2022/05/30 08:28:06;;;;;;;13.15;3.65;;;;;;;13.87;59.05;101175.94;5047952;28;20028;-59
2022/05/30 08:30:32;;;;;;;17.58;4.90;;;;;;;13.79;59.92;101184.28;5034413;28;20049;-59
2022/05/30 08:32:59;;;;;;;18.23;4.55;;;;;;;13.66;60.69;101174.44;5048415;28;20033;-59
2022/05/30 08:35:25;;;;;;;17.40;4.13;;;;;;;13.81;60.13;101172.25;5054548;28;20029;-59
2022/05/30 08:37:57;;;;;;;15.38;4.40;;;;;;;13.77;59.99;101171.06;5053681;28;20029;-59
2022/05/30 08:43:16;;;;;;;13.70;4.28;;;;;;;13.54;60.82;101160.03;5049940;28;20043;-58
2022/05/30 08:45:46;;;;;;;13.55;3.67;;;;;;;13.32;61.45;101173.00;5053980;28;20029;-59
2022/05/30 08:48:15;;;;;;;12.98;4.22;;;;;;;13.53;60.37;101169.97;5052436;28;20077;-58
2022/05/30 08:50:53;;;;;;;14.50;4.40;;;;;;;13.55;59.70;101175.13;5054444;28;20047;-59
2022/05/30 08:53:40;;;;;;;9.88;3.20;;;;;;;13.76;58.04;101176.63;5053286;28;20045;-58
2022/05/30 08:56:36;;;;;;;12.88;3.35;;;;;;;13.86;57.20;101168.91;5054042;28;20036;-58
2022/05/30 08:59:18;;;;;;;11.05;3.38;;;;;;;13.62;57.26;101170.53;5054152;28;20033;-58
2022/05/30 09:01:50;;;;;;;16.00;3.55;;;;;;;13.52;57.98;101167.50;5051354;28;20588;-59
2022/05/30 09:04:45;;;;;;;14.98;3.90;;;;;;;13.45;58.77;101160.31;5033548;28;20536;-59
2022/05/30 09:07:19;;;;;;;15.73;4.23;;;;;;;13.41;59.02;101169.84;5032939;28;20123;-58
2022/05/30 09:09:59;;;;;;;15.07;3.85;;;;;;;13.51;58.49;101166.69;5053039;28;20555;-58
2022/05/30 09:12:44;;;;;;;15.52;3.75;;;;;;;13.78;57.27;101161.94;5054059;28;20028;-59
2022/05/30 09:15:15;;;;;;;7.10;2.75;;;;;;;13.75;55.22;101170.44;5052529;28;20021;-59
2022/05/30 09:18:02;;;;;;;21.13;2.70;;;;;;;13.67;54.10;101165.34;5053998;28;20025;-59
2022/05/30 09:20:31;;;;;;;14.50;2.85;;;;;;;13.61;55.02;101163.53;5052857;28;20123;-58
2022/05/30 09:22:57;;;;;;;13.82;3.28;;;;;;;13.33;57.93;101170.13;5053777;28;20100;-59
2022/05/30 09:28:19;;;;;;;15.00;4.47;;;;;;;13.68;59.52;101164.28;5052203;28;20043;-58
2022/05/30 09:31:04;;;;;;;13.23;3.83;;;;;;;13.57;60.15;101176.56;5042056;28;20037;-58
2022/05/30 09:33:32;;;;;;;19.35;4.25;;;;;;;13.67;60.13;101179.59;5053419;28;20025;-59
2022/05/30 09:36:19;;;;;;;19.08;4.38;;;;;;;13.50;60.46;101199.19;5052467;28;20036;-58
2022/05/30 09:39:06;;;;;;;22.13;4.72;;;;;;;13.22;61.16;101194.16;5054025;28;20377;-58
2022/05/30 09:41:38;;;;;;;19.05;4.75;;;;;;;13.36;60.59;101188.47;5052705;28;20037;-58
2022/05/30 09:44:20;;;;;;;18.15;4.43;;;;;;;13.43;60.31;101197.31;5052905;28;20044;-58
2022/05/30 09:46:57;;;;;;;19.48;3.72;;;;;;;13.16;58.71;101193.13;5052653;28;20040;-59
2022/05/30 09:49:30;;;;;;;15.73;3.97;;;;;;;13.29;58.25;101208.38;5051673;28;20029;-59
2022/05/30 09:52:02;;;;;;;17.92;4.50;;;;;;;13.14;59.10;101216.69;5049803;28;20029;-58
2022/05/30 09:54:28;;;;;;;13.27;3.90;;;;;;;13.15;58.55;101212.97;5051401;28;20120;-59
2022/05/30 09:57:13;;;;;;;14.95;4.30;;;;;;;13.23;58.85;101206.56;5053253;28;20532;-58
2022/05/30 09:59:42;;;;;;;14.37;4.00;;;;;;;13.25;59.08;101199.91;5051653;28;20032;-59
2022/05/30 10:02:29;;;;;;;18.15;3.50;;;;;;;13.31;58.78;101204.44;5048157;28;20029;-59
2022/05/30 10:05:22;;;;;;;13.95;3.17;;;;;;;13.46;58.71;101196.09;5037706;28;20433;-59
2022/05/30 10:08:15;;;;;;;18.60;4.53;;;;;;;13.45;58.61;101187.19;5052983;28;20021;-60
2022/05/30 10:10:49;;;;;;;11.88;3.63;;;;;;;13.50;58.70;101181.19;5040357;28;20136;-59
2022/05/30 10:13:36;;;;;;;18.50;4.13;;;;;;;13.41;58.65;101175.22;5051562;28;20067;-59
2022/05/30 10:16:05;;;;;;;10.40;2.65;;;;;;;13.32;58.39;101165.75;5051772;28;20637;-59
2022/05/30 10:18:57;;;;;;;14.20;4.00;;;;;;;13.32;58.86;101171.13;5039635;28;20033;-59
2022/05/30 10:28:14;;;;;;;13.27;3.78;;;;;;;13.22;58.54;101168.13;5053099;28;20029;-58
2022/05/30 10:28:15;;;;;;;13.40;3.70;;;;;;;13.26;58.92;101180.06;5032087;22;20059;-59
2022/05/30 10:30:51;;;;;;;14.88;3.83;;;;;;;13.20;59.51;101173.66;5052711;28;20481;-58
2022/05/30 10:33:49;;;;;;;15.43;3.75;;;;;;;13.57;59.54;101181.13;5051470;28;20025;-59
2022/05/30 10:36:59;;;;;;;11.13;3.10;;;;;;;13.23;59.64;101193.13;5049648;28;20033;-58
2022/05/30 10:39:43;;;;;;;18.73;4.13;;;;;;;13.15;60.04;101186.91;4997615;28;20113;-58
2022/05/30 10:42:18;;;;;;;16.70;4.18;;;;;;;13.20;59.89;101184.41;5032185;28;20427;-58
2022/05/30 10:44:49;;;;;;;15.70;4.07;;;;;;;13.02;60.30;101172.72;5040855;28;20486;-58
2022/05/30 10:47:23;;;;;;;19.15;3.63;;;;;;;13.16;60.21;101182.38;5049160;28;20051;-58
2022/05/30 10:50:10;;;;;;;12.98;4.20;;;;;;;13.29;59.57;101179.63;5032188;28;20035;-59
2022/05/30 10:52:40;;;;;;;12.85;3.55;;;;;;;13.06;59.63;101173.94;5031328;28;20033;-59
2022/05/30 10:55:13;;;;;;;12.75;3.97;;;;;;;12.79;60.52;101182.13;5031838;28;20029;-59
2022/05/30 10:57:44;;;;;;;13.80;3.97;;;;;;;12.63;61.11;101166.47;5034544;28;20029;-58
2022/05/30 11:00:19;;;;;;;12.35;3.42;;;;;;;12.68;60.62;101169.34;5029868;28;20131;-58
2022/05/30 11:03:03;;;;;;;13.65;3.92;;;;;;;12.77;60.28;101165.41;5033824;28;20051;-59
2022/05/30 11:05:51;;;;;;;16.17;3.92;;;;;;;12.59;60.25;101166.06;5037844;28;20428;-59
2022/05/30 11:08:34;;;;;;;13.00;3.15;;;;;;;12.55;60.23;101164.84;5042645;28;20034;-58
2022/05/30 11:11:10;;;;;;;12.80;3.45;;;;;;;12.44;60.19;101173.56;5030579;28;20041;-59
2022/05/30 11:13:47;;;;;;;14.02;3.15;;;;;;;11.77;61.67;101175.44;5036553;28;20504;-59
2022/05/30 11:16:40;;;;;;;14.38;3.03;;;;;;;11.91;61.21;101170.09;5031754;28;20036;-58
2022/05/30 11:19:09;;;;;;;8.70;2.47;;;;;;;12.08;60.17;101182.06;5034786;28;20052;-58
2022/05/30 11:21:35;;;;;;;12.93;3.25;;;;;;;12.11;59.97;101179.78;5031754;28;20029;-59
2022/05/30 11:24:04;;;;;;;12.40;2.88;;;;;;;11.91;60.22;101175.47;5051352;28;20025;-58
2022/05/30 11:27:09;;;;;;;13.70;3.78;;;;;;;12.04;59.46;101172.75;5051233;28;20041;-58
2022/05/30 11:30:26;;;;;;;8.32;2.75;;;;;;;12.17;58.99;101180.00;5047458;28;20030;-58
2022/05/30 11:33:23;;;;;;;11.10;2.67;;;;;;;11.99;59.40;101178.75;4970702;28;20038;-59
2022/05/30 11:36:00;;;;;;;10.63;2.72;;;;;;;12.01;59.21;101182.06;5011804;28;20529;-59
2022/05/30 11:38:59;;;;;;;11.73;3.03;;;;;;;12.04;59.20;101172.75;5010873;28;20122;-59
2022/05/30 11:41:59;;;;;;;8.25;2.90;;;;;;;11.95;59.45;101174.84;5011456;28;20049;-59
2022/05/30 11:44:44;;;;;;;9.07;2.80;;;;;;;12.01;58.99;101174.00;5011658;28;20064;-58
2022/05/30 11:47:16;;;;;;;8.80;2.85;;;;;;;12.11;58.31;101177.09;5012980;28;20033;-58
2022/05/30 11:50:08;;;;;;;13.15;3.00;;;;;;;11.90;58.58;101185.38;5015980;28;20038;-58
2022/05/30 11:52:45;;;;;;;9.23;2.45;;;;;;;11.56;59.78;101187.16;5015711;28;20029;-58
2022/05/30 11:55:20;;;;;;;8.70;2.58;;;;;;;11.39;60.41;101193.94;5015192;28;20081;-59
2022/05/30 11:57:59;;;;;;;9.30;2.38;;;;;;;11.48;59.87;101208.78;5050928;28;20381;-58